createdAt,value
2022-09-20T00:14:53.306Z,12.90
2022-09-20T00:31:43.251Z,13.60
2022-09-20T00:48:34.850Z,11.50
2022-09-20T01:05:23.263Z,12.50
2022-09-20T01:22:22.709Z,13.10
2022-09-20T01:39:20.156Z,13.00
2022-09-20T01:56:39.879Z,13.70
2022-09-20T02:13:35.193Z,13.40
2022-09-20T02:30:36.713Z,14.80
2022-09-20T02:47:34.582Z,17.30
2022-09-20T03:04:49.235Z,13.60
2022-09-20T03:39:05.374Z,14.40
2022-09-20T03:56:19.074Z,10.90
2022-09-20T04:13:27.335Z,11.40
2022-09-20T04:30:21.059Z,10.40
2022-09-20T04:47:52.007Z,10.90
2022-09-20T05:05:14.863Z,8.70
2022-09-20T05:22:27.337Z,9.80
2022-09-20T05:39:30.271Z,6.80
2022-09-20T05:56:28.430Z,9.20
2022-09-20T06:14:00.740Z,13.00
2022-09-20T06:30:52.123Z,10.90
2022-09-20T06:47:40.673Z,10.70
2022-09-20T07:04:29.894Z,18.70
2022-09-20T07:21:19.824Z,15.70
2022-09-20T07:38:08.929Z,20.30
2022-09-20T07:54:57.947Z,17.70
2022-09-20T08:11:46.612Z,15.90
2022-09-20T08:28:35.678Z,9.00
2022-09-20T08:45:35.605Z,18.00
2022-09-20T09:02:26.842Z,26.30
2022-09-20T09:19:37.008Z,14.30
2022-09-20T09:36:27.746Z,11.90
2022-09-20T09:53:18.394Z,14.00
2022-09-20T10:10:22.380Z,12.80
2022-09-20T10:27:35.077Z,9.50
2022-09-20T10:44:41.593Z,8.90
2022-09-20T11:01:39.898Z,7.80
2022-09-20T11:18:36.011Z,7.80
2022-09-20T11:35:35.999Z,6.20
2022-09-20T11:52:45.216Z,5.50
2022-09-20T12:09:39.055Z,6.50
2022-09-20T12:43:37.444Z,4.90
2022-09-20T13:00:39.212Z,5.70
2022-09-20T13:17:32.089Z,2.60
2022-09-20T13:34:27.930Z,5.50
2022-09-20T13:51:27.911Z,3.90
2022-09-20T14:08:23.159Z,3.30
2022-09-20T14:25:27.498Z,3.00
2022-09-20T14:42:25.762Z,3.80
2022-09-20T14:59:30.785Z,5.90
2022-09-20T15:16:22.133Z,3.50
2022-09-20T15:33:12.202Z,4.40
2022-09-20T15:50:00.470Z,2.80
2022-09-20T16:06:51.295Z,3.60
2022-09-20T16:23:39.958Z,4.90
2022-09-20T16:40:28.229Z,3.50
2022-09-20T16:57:16.401Z,2.70
2022-09-20T17:14:07.905Z,5.50
2022-09-20T17:31:01.212Z,4.20
2022-09-20T17:47:52.010Z,5.60
2022-09-20T18:04:42.750Z,10.60
2022-09-20T18:21:35.764Z,6.40
2022-09-20T18:38:25.913Z,6.60
2022-09-20T18:55:15.982Z,6.20
2022-09-20T19:12:09.092Z,9.10
2022-09-20T19:29:02.438Z,9.30
2022-09-20T19:45:58.784Z,7.50
2022-09-20T20:02:51.509Z,7.20
2022-09-20T20:19:56.314Z,7.20
2022-09-20T20:53:38.905Z,8.10
2022-09-20T21:10:29.135Z,6.70
2022-09-20T21:27:21.064Z,5.90
2022-09-20T21:44:12.489Z,8.40
2022-09-20T22:01:02.843Z,6.60
2022-09-20T22:17:54.742Z,7.90
2022-09-20T22:34:43.138Z,7.20
2022-09-20T22:51:35.038Z,7.20
2022-09-20T23:08:25.394Z,6.80
2022-09-20T23:25:16.248Z,8.30
2022-09-20T23:42:05.575Z,7.50
2022-09-20T23:58:54.364Z,7.10
